createdAt,value
2023-02-04T00:00:09.251Z,1021.4
2023-02-04T00:01:09.256Z,1021.4
2023-02-04T00:02:09.363Z,1021.4
2023-02-04T00:03:09.391Z,1021.4
2023-02-04T00:04:09.292Z,1021.4
2023-02-04T00:05:09.298Z,1021.4
2023-02-04T00:06:09.391Z,1021.4
2023-02-04T00:07:09.320Z,1021.5
2023-02-04T00:08:09.336Z,1021.5
2023-02-04T00:09:09.346Z,1021.5
2023-02-04T00:10:09.421Z,1021.7
2023-02-04T00:11:09.371Z,1021.5
2023-02-04T00:12:09.378Z,1021.7
2023-02-04T00:13:09.396Z,1021.6
2023-02-04T00:14:09.403Z,1021.6
2023-02-04T00:15:09.406Z,1021.7
2023-02-04T00:16:09.602Z,1021.7
2023-02-04T00:17:09.413Z,1021.7
2023-02-04T00:18:09.483Z,1021.8
2023-02-04T00:19:09.425Z,1021.8
2023-02-04T00:20:09.453Z,1021.8
2023-02-04T00:21:09.432Z,1021.8
2023-02-04T00:22:09.507Z,1021.8
2023-02-04T00:23:09.464Z,1021.7
2023-02-04T00:24:09.468Z,1021.9
2023-02-04T00:25:09.480Z,1021.8
2023-02-04T00:26:09.511Z,1021.8
2023-02-04T00:27:09.498Z,1021.9
2023-02-04T00:28:09.650Z,1022.0
2023-02-04T00:29:09.505Z,1021.9
2023-02-04T00:30:09.522Z,1021.9
2023-02-04T00:31:09.605Z,1021.8
2023-02-04T00:32:09.852Z,1022.0
2023-02-04T00:33:09.592Z,1021.9
2023-02-04T00:34:09.538Z,1022.1
2023-02-04T00:35:09.542Z,1022.1
2023-02-04T00:36:09.543Z,1022.1
2023-02-04T00:37:09.567Z,1022.2
2023-02-04T00:38:09.563Z,1022.2
2023-02-04T00:39:09.571Z,1022.2
2023-02-04T00:40:09.567Z,1022.2
2023-02-04T00:41:09.574Z,1022.3
2023-02-04T00:42:09.582Z,1022.2
2023-02-04T00:43:09.601Z,1022.3
2023-02-04T00:44:09.594Z,1022.3
2023-02-04T00:45:09.608Z,1022.3
2023-02-04T00:46:09.886Z,1022.3
2023-02-04T00:47:09.622Z,1022.4
2023-02-04T00:48:09.635Z,1022.4
2023-02-04T00:49:09.635Z,1022.5
2023-02-04T00:50:09.647Z,1022.5
2023-02-04T00:51:09.660Z,1022.5
2023-02-04T00:52:09.673Z,1022.6
2023-02-04T00:53:09.673Z,1022.6
2023-02-04T00:54:09.687Z,1022.7
2023-02-04T00:55:09.691Z,1022.7
2023-02-04T00:56:09.693Z,1022.8
2023-02-04T00:57:09.700Z,1022.8
2023-02-04T00:58:09.715Z,1022.8
2023-02-04T00:59:09.718Z,1022.7
2023-02-04T01:00:09.722Z,1022.9
2023-02-04T01:01:09.822Z,1022.8
2023-02-04T01:02:09.733Z,1022.9
2023-02-04T01:03:09.983Z,1022.9
2023-02-04T01:04:09.752Z,1022.9
2023-02-04T01:05:09.758Z,1023.1
2023-02-04T01:06:09.769Z,1023.1
2023-02-04T01:07:09.845Z,1023.0
2023-02-04T01:08:09.770Z,1023.1
2023-02-04T01:09:09.777Z,1023.1
2023-02-04T01:10:10.148Z,1023.2
2023-02-04T01:11:09.790Z,1023.2
2023-02-04T01:12:09.820Z,1023.2
2023-02-04T01:13:09.802Z,1023.2
2023-02-04T01:14:09.835Z,1023.3
2023-02-04T01:15:09.833Z,1023.3
2023-02-04T01:16:09.956Z,1023.3
2023-02-04T01:17:09.847Z,1023.4
2023-02-04T01:18:09.848Z,1023.4
2023-02-04T01:19:09.864Z,1023.4
2023-02-04T01:20:09.860Z,1023.4
2023-02-04T01:21:09.893Z,1023.4
2023-02-04T01:22:09.873Z,1023.5
2023-02-04T01:23:09.883Z,1023.5
2023-02-04T01:24:09.892Z,1023.5
2023-02-04T01:25:09.959Z,1023.5
2023-02-04T01:26:09.918Z,1023.5
2023-02-04T01:27:09.914Z,1023.5
2023-02-04T01:28:10.065Z,1023.5
2023-02-04T01:29:09.931Z,1023.6
2023-02-04T01:30:09.941Z,1023.7
2023-02-04T01:31:10.047Z,1023.7
2023-02-04T01:32:09.958Z,1023.7
2023-02-04T01:33:09.965Z,1023.7
2023-02-04T01:51:10.484Z,1024.0
2023-02-04T01:52:10.089Z,1024.0
2023-02-04T01:53:10.093Z,1024.1
2023-02-04T01:54:10.100Z,1024.2
2023-02-04T01:55:10.108Z,1024.1
2023-02-04T01:56:10.119Z,1024.1
2023-02-04T01:57:10.130Z,1024.2
2023-02-04T01:58:10.127Z,1024.1
2023-02-04T01:59:10.127Z,1024.2
2023-02-04T02:00:10.141Z,1024.1
2023-02-04T02:01:10.170Z,1024.1
2023-02-04T02:02:10.289Z,1024.1
2023-02-04T02:03:10.205Z,1024.1
2023-02-04T02:04:10.162Z,1024.1
2023-02-04T02:05:10.166Z,1024.2
2023-02-04T02:06:10.177Z,1024.2
2023-02-04T02:07:10.203Z,1024.2
2023-02-04T02:08:10.197Z,1024.2
2023-02-04T02:09:10.192Z,1024.2
2023-02-04T02:10:10.200Z,1024.2
2023-02-04T02:11:10.217Z,1024.2
2023-02-04T02:12:10.212Z,1024.2
2023-02-04T02:13:10.231Z,1024.2
2023-02-04T02:14:10.241Z,1024.3
2023-02-04T02:15:10.238Z,1024.3
2023-02-04T02:16:10.291Z,1024.3
2023-02-04T02:17:10.248Z,1024.3
2023-02-04T02:18:10.265Z,1024.3
2023-02-04T02:19:10.303Z,1024.3
2023-02-04T02:20:10.270Z,1024.3
2023-02-04T02:21:10.270Z,1024.4
2023-02-04T02:22:10.277Z,1024.5
2023-02-04T02:23:10.304Z,1024.4
2023-02-04T02:24:10.320Z,1024.5
2023-02-04T02:25:10.322Z,1024.4
2023-02-04T02:26:10.305Z,1024.6
2023-02-04T02:27:10.313Z,1024.5
2023-02-04T02:28:10.428Z,1024.7
2023-02-04T02:29:10.311Z,1024.6
2023-02-04T02:30:10.372Z,1024.6
2023-02-04T02:31:10.487Z,1024.6
2023-02-04T02:32:10.339Z,1024.6
2023-02-04T02:33:10.343Z,1024.6
2023-02-04T02:34:10.349Z,1024.6
2023-02-04T02:35:10.350Z,1024.7
2023-02-04T02:36:10.353Z,1024.7
2023-02-04T02:37:10.366Z,1024.7
2023-02-04T02:38:10.375Z,1024.7
2023-02-04T02:39:10.378Z,1024.8
2023-02-04T02:40:10.386Z,1024.7
2023-02-04T02:41:10.435Z,1024.7
2023-02-04T02:42:10.393Z,1024.8
2023-02-04T02:43:10.399Z,1024.8
2023-02-04T02:44:10.406Z,1024.9
2023-02-04T02:45:10.412Z,1024.8
2023-02-04T02:46:10.514Z,1024.9
2023-02-04T02:47:10.428Z,1024.9
2023-02-04T02:48:10.434Z,1025.0
2023-02-04T02:49:10.442Z,1024.9
2023-02-04T02:50:10.523Z,1025.0
2023-02-04T02:51:10.464Z,1024.9
2023-02-04T02:52:10.466Z,1025.0
2023-02-04T02:53:10.491Z,1025.1
2023-02-04T02:54:10.478Z,1025.1
2023-02-04T02:55:10.487Z,1025.1
2023-02-04T02:56:10.516Z,1025.2
2023-02-04T02:57:10.509Z,1025.2
2023-02-04T02:58:10.519Z,1025.2
2023-02-04T02:59:10.529Z,1025.2
2023-02-04T03:00:10.522Z,1025.2
2023-02-04T03:01:10.682Z,1025.3
2023-02-04T03:02:10.590Z,1025.3
2023-02-04T03:03:10.537Z,1025.3
2023-02-04T03:04:10.539Z,1025.3
2023-02-04T03:05:10.543Z,1025.4
2023-02-04T03:06:10.623Z,1025.3
2023-02-04T03:07:10.566Z,1025.3
2023-02-04T03:08:10.562Z,1025.3
2023-02-04T03:09:10.566Z,1025.4
2023-02-04T03:10:10.605Z,1025.4
2023-02-04T03:11:10.592Z,1025.4
2023-02-04T03:12:10.587Z,1025.4
2023-02-04T03:13:10.603Z,1025.5
2023-02-04T03:14:10.615Z,1025.4
2023-02-04T03:15:10.619Z,1025.5
2023-02-04T03:16:10.752Z,1025.5
2023-02-04T03:17:10.642Z,1025.5
2023-02-04T03:18:10.644Z,1025.6
2023-02-04T03:19:10.634Z,1025.6
2023-02-04T03:20:10.642Z,1025.6
2023-02-04T03:21:10.658Z,1025.6
2023-02-04T03:22:10.655Z,1025.7
2023-02-04T03:23:10.663Z,1025.6
2023-02-04T03:24:10.674Z,1025.7
2023-02-04T03:25:10.681Z,1025.7
2023-02-04T03:26:10.682Z,1025.7
2023-02-04T03:27:10.691Z,1025.8
2023-02-04T03:28:10.907Z,1025.7
2023-02-04T03:29:10.721Z,1025.8
2023-02-04T03:30:10.706Z,1025.9
2023-02-04T03:31:10.892Z,1026.0
2023-02-04T03:32:10.720Z,1025.9
2023-02-04T03:33:10.726Z,1026.0
2023-02-04T03:34:10.740Z,1026.0
2023-02-04T03:35:10.743Z,1026.0
2023-02-04T03:36:10.760Z,1026.1
2023-02-04T03:37:10.756Z,1026.1
2023-02-04T03:38:10.763Z,1026.1
2023-02-04T03:39:10.768Z,1026.0
2023-02-04T03:40:10.771Z,1026.1
2023-02-04T03:41:10.781Z,1026.1
2023-02-04T03:42:10.794Z,1026.2
2023-02-04T03:43:10.797Z,1026.2
2023-02-04T03:44:10.806Z,1026.2
2023-02-04T03:45:10.828Z,1026.2
2023-02-04T03:46:10.973Z,1026.2
2023-02-04T03:47:10.830Z,1026.3
2023-02-04T03:48:10.837Z,1026.4
2023-02-04T03:49:10.853Z,1026.4
2023-02-04T03:50:10.862Z,1026.5
2023-02-04T03:51:10.869Z,1026.5
2023-02-04T03:52:10.869Z,1026.5
2023-02-04T03:53:10.896Z,1026.6
2023-02-04T03:54:10.886Z,1026.6
2023-02-04T03:55:10.905Z,1026.7
2023-02-04T03:56:10.909Z,1026.7
2023-02-04T03:57:10.901Z,1026.8
2023-02-04T03:58:10.924Z,1026.8
2023-02-04T03:59:10.926Z,1026.8
2023-02-04T04:00:10.919Z,1026.8
2023-02-04T04:01:10.951Z,1026.8
2023-02-04T04:02:10.937Z,1026.8
2023-02-04T04:03:11.088Z,1026.8
2023-02-04T04:04:10.963Z,1026.8
2023-02-04T04:05:10.957Z,1026.9
2023-02-04T04:06:10.981Z,1026.9
2023-02-04T04:07:10.966Z,1026.9
2023-02-04T04:08:10.974Z,1027.0
2023-02-04T04:09:10.994Z,1027.0
2023-02-04T04:10:10.987Z,1026.9
2023-02-04T04:11:10.998Z,1027.0
2023-02-04T04:12:11.001Z,1027.1
2023-02-04T04:13:11.010Z,1027.1
2023-02-04T04:14:11.018Z,1027.1
2023-02-04T04:15:11.039Z,1027.1
2023-02-04T04:16:11.185Z,1027.1
2023-02-04T04:17:11.144Z,1027.1
2023-02-04T04:18:11.047Z,1027.1
2023-02-04T04:19:11.082Z,1027.2
2023-02-04T04:20:11.082Z,1027.2
2023-02-04T04:21:11.082Z,1027.1
2023-02-04T04:22:11.097Z,1027.1
2023-02-04T04:23:11.089Z,1027.1
2023-02-04T04:24:11.102Z,1027.1
2023-02-04T04:25:11.112Z,1027.2
2023-02-04T04:26:11.152Z,1027.2
2023-02-04T04:27:11.144Z,1027.2
2023-02-04T04:28:11.212Z,1027.2
2023-02-04T04:29:11.134Z,1027.2
2023-02-04T04:30:11.145Z,1027.2
2023-02-04T04:31:11.356Z,1027.2
2023-02-04T04:32:11.291Z,1027.2
2023-02-04T04:33:11.158Z,1027.1
2023-02-04T04:34:11.167Z,1027.2
2023-02-04T04:35:11.182Z,1027.2
2023-02-04T04:36:11.182Z,1027.2
2023-02-04T04:37:11.209Z,1027.1
2023-02-04T04:38:11.209Z,1027.1
2023-02-04T04:39:11.214Z,1027.2
2023-02-04T04:40:11.209Z,1027.2
2023-02-04T04:41:11.258Z,1027.2
2023-02-04T04:42:11.254Z,1027.2
2023-02-04T04:43:11.241Z,1027.2
2023-02-04T04:44:11.241Z,1027.3
2023-02-04T04:45:11.247Z,1027.3
2023-02-04T04:46:11.263Z,1027.3
2023-02-04T04:47:11.267Z,1027.3
2023-02-04T04:48:11.287Z,1027.3
2023-02-04T04:49:11.308Z,1027.3
2023-02-04T04:50:11.294Z,1027.3
2023-02-04T04:51:11.299Z,1027.3
2023-02-04T04:52:11.387Z,1027.4
2023-02-04T04:53:11.472Z,1027.3
2023-02-04T04:54:11.363Z,1027.4
2023-02-04T04:55:11.333Z,1027.4
2023-02-04T04:56:11.338Z,1027.3
2023-02-04T04:57:11.346Z,1027.4
2023-02-04T04:58:11.346Z,1027.4
2023-02-04T04:59:11.358Z,1027.4
2023-02-04T05:00:11.368Z,1027.4
2023-02-04T05:01:11.479Z,1027.4
2023-02-04T05:02:11.373Z,1027.4
2023-02-04T05:03:11.631Z,1027.5
2023-02-04T05:04:11.398Z,1027.4
2023-02-04T05:05:11.489Z,1027.4
2023-02-04T05:06:11.422Z,1027.5
2023-02-04T05:07:11.456Z,1027.4
2023-02-04T05:08:11.428Z,1027.5
2023-02-04T05:09:11.433Z,1027.5
2023-02-04T05:10:11.683Z,1027.6
2023-02-04T05:11:11.473Z,1027.5
2023-02-04T05:12:11.455Z,1027.6
2023-02-04T05:13:11.470Z,1027.6
2023-02-04T05:14:11.484Z,1027.6
2023-02-04T05:15:11.491Z,1027.7
2023-02-04T05:16:11.576Z,1027.8
2023-02-04T05:17:11.493Z,1027.7
2023-02-04T05:18:11.505Z,1027.8
2023-02-04T05:19:11.857Z,1027.9
2023-02-04T05:20:11.524Z,1027.8
2023-02-04T05:21:11.514Z,1027.9
2023-02-04T05:22:11.535Z,1028.0
2023-02-04T05:23:11.534Z,1028.0
2023-02-04T05:24:11.538Z,1028.1
2023-02-04T05:25:11.555Z,1028.0
2023-02-04T05:26:28.468Z,1028.0
2023-02-04T05:27:11.558Z,1028.0
2023-02-04T05:28:11.745Z,1028.1
2023-02-04T05:29:11.600Z,1028.0
2023-02-04T05:30:11.588Z,1028.1
2023-02-04T05:31:11.960Z,1028.0
2023-02-04T05:32:11.593Z,1028.1
2023-02-04T05:33:11.619Z,1028.1
2023-02-04T05:34:11.612Z,1028.0
2023-02-04T05:35:11.628Z,1028.1
2023-02-04T05:36:11.632Z,1028.1
2023-02-04T05:37:11.641Z,1028.1
2023-02-04T05:38:11.658Z,1028.1
2023-02-04T05:39:11.659Z,1028.2
2023-02-04T05:40:11.660Z,1028.1
2023-02-04T05:41:11.710Z,1028.2
2023-02-04T05:42:11.672Z,1028.1
2023-02-04T05:43:11.686Z,1028.2
2023-02-04T05:44:11.677Z,1028.2
2023-02-04T05:45:11.692Z,1028.3
2023-02-04T05:46:11.863Z,1028.2
2023-02-04T05:47:11.716Z,1028.2
2023-02-04T05:48:11.727Z,1028.3
2023-02-04T05:49:11.719Z,1028.3
2023-02-04T05:50:11.739Z,1028.3
2023-02-04T05:51:11.727Z,1028.4
2023-02-04T05:52:11.731Z,1028.4
2023-02-04T05:53:11.739Z,1028.4
2023-02-04T05:54:11.745Z,1028.4
2023-02-04T05:55:11.755Z,1028.4
2023-02-04T05:56:11.755Z,1028.4
2023-02-04T05:57:11.777Z,1028.4
2023-02-04T05:58:11.777Z,1028.5
2023-02-04T05:59:11.777Z,1028.4
2023-02-04T06:00:11.790Z,1028.6
2023-02-04T06:01:11.793Z,1028.6
2023-02-04T06:02:11.800Z,1028.4
2023-02-04T06:03:11.952Z,1028.5
2023-02-04T06:04:11.944Z,1028.5
2023-02-04T06:05:11.824Z,1028.5
2023-02-04T06:06:11.838Z,1028.5
2023-02-04T06:07:11.844Z,1028.5
2023-02-04T06:08:11.835Z,1028.5
2023-02-04T06:09:11.851Z,1028.5
2023-02-04T06:10:11.863Z,1028.4
2023-02-04T06:11:11.864Z,1028.6
2023-02-04T06:12:11.888Z,1028.5
2023-02-04T06:13:11.880Z,1028.5
2023-02-04T06:14:11.889Z,1028.5
2023-02-04T06:15:11.901Z,1028.6
2023-02-04T06:16:14.877Z,1028.7
2023-02-04T06:17:11.911Z,1028.7
2023-02-04T06:18:11.926Z,1028.7
2023-02-04T06:19:11.924Z,1028.7
2023-02-04T06:20:11.937Z,1028.7
2023-02-04T06:21:11.950Z,1028.7
2023-02-04T06:22:11.946Z,1028.8
2023-02-04T06:23:11.948Z,1028.8
2023-02-04T06:24:11.971Z,1028.8
2023-02-04T06:25:11.980Z,1028.9
2023-02-04T06:26:11.979Z,1028.9
2023-02-04T06:27:11.989Z,1028.9
2023-02-04T06:28:12.045Z,1028.9
2023-02-04T06:29:12.003Z,1028.9
2023-02-04T06:30:12.014Z,1029.0
2023-02-04T06:31:12.139Z,1028.9
2023-02-04T06:32:12.039Z,1028.9
2023-02-04T06:33:12.042Z,1029.0
2023-02-04T06:34:12.079Z,1029.0
2023-02-04T06:35:12.065Z,1029.2
2023-02-04T06:36:12.066Z,1029.1
2023-02-04T06:37:12.075Z,1029.2
2023-02-04T06:38:12.086Z,1029.1
2023-02-04T06:39:12.109Z,1029.2
2023-02-04T06:40:12.120Z,1029.2
2023-02-04T06:41:12.111Z,1029.1
2023-02-04T06:42:12.113Z,1029.1
2023-02-04T06:43:12.127Z,1029.1
2023-02-04T06:44:12.128Z,1029.2
2023-02-04T06:45:12.142Z,1029.2
2023-02-04T06:46:12.286Z,1029.2
2023-02-04T06:47:12.157Z,1029.2
2023-02-04T06:48:12.155Z,1029.3
2023-02-04T06:49:12.170Z,1029.3
2023-02-04T06:50:12.174Z,1029.3
2023-02-04T06:51:12.208Z,1029.3
2023-02-04T06:52:12.186Z,1029.3
2023-02-04T06:53:12.188Z,1029.4
2023-02-04T06:54:12.194Z,1029.4
2023-02-04T06:55:12.197Z,1029.4
2023-02-04T06:56:12.229Z,1029.4
2023-02-04T06:57:12.209Z,1029.5
2023-02-04T06:58:12.217Z,1029.6
2023-02-04T06:59:12.229Z,1029.6
2023-02-04T07:00:12.243Z,1029.7
2023-02-04T07:01:12.267Z,1029.5
2023-02-04T07:02:12.361Z,1029.6
2023-02-04T07:03:12.252Z,1029.7
2023-02-04T07:04:12.270Z,1029.7
2023-02-04T07:05:12.274Z,1029.7
2023-02-04T07:06:12.279Z,1029.6
2023-02-04T07:07:12.308Z,1029.7
2023-02-04T07:08:12.300Z,1029.7
2023-02-04T07:09:12.303Z,1029.7
2023-02-04T07:10:12.318Z,1029.8
2023-02-04T07:11:12.330Z,1029.9
2023-02-04T07:12:12.330Z,1029.8
2023-02-04T07:13:12.365Z,1029.9
2023-02-04T07:14:12.346Z,1029.9
2023-02-04T07:15:12.368Z,1029.9
2023-02-04T07:16:12.512Z,1029.9
2023-02-04T07:17:12.374Z,1029.9
2023-02-04T07:18:12.375Z,1029.9
2023-02-04T07:19:12.580Z,1029.9
2023-02-04T07:20:12.401Z,1029.9
2023-02-04T07:21:12.453Z,1029.9
2023-02-04T07:22:12.417Z,1029.9
2023-02-04T07:23:12.422Z,1030.0
2023-02-04T07:24:12.426Z,1030.1
2023-02-04T07:25:12.430Z,1030.0
2023-02-04T07:26:12.432Z,1030.0
2023-02-04T07:27:12.448Z,1029.9
2023-02-04T07:28:12.588Z,1030.0
2023-02-04T07:29:25.536Z,1030.0
2023-02-04T07:30:12.486Z,1030.1
2023-02-04T07:31:12.672Z,1030.0
2023-02-04T07:32:12.516Z,1030.1
2023-02-04T07:33:12.492Z,1030.1
2023-02-04T07:34:12.488Z,1030.1
2023-02-04T07:35:12.542Z,1030.1
2023-02-04T07:36:15.356Z,1030.2
2023-02-04T07:37:12.510Z,1030.2
2023-02-04T07:38:12.515Z,1030.1
2023-02-04T07:39:12.537Z,1030.1
2023-02-04T07:40:12.538Z,1030.3
2023-02-04T07:41:12.633Z,1030.2
2023-02-04T07:42:12.560Z,1030.2
2023-02-04T07:43:12.571Z,1030.3
2023-02-04T07:44:12.579Z,1030.2
2023-02-04T07:45:12.740Z,1030.2
2023-02-04T07:46:12.704Z,1030.2
2023-02-04T07:47:12.624Z,1030.3
2023-02-04T07:48:12.610Z,1030.3
2023-02-04T07:49:12.623Z,1030.3
2023-02-04T07:50:12.626Z,1030.3
2023-02-04T07:51:12.752Z,1030.4
2023-02-04T07:52:12.642Z,1030.3
2023-02-04T07:53:12.661Z,1030.4
2023-02-04T07:54:12.664Z,1030.4
2023-02-04T07:55:12.672Z,1030.4
2023-02-04T07:56:12.690Z,1030.3
2023-02-04T07:57:12.686Z,1030.4
2023-02-04T07:58:12.694Z,1030.3
2023-02-04T07:59:12.711Z,1030.4
2023-02-04T08:00:12.738Z,1030.3
2023-02-04T08:01:12.768Z,1030.4
2023-02-04T08:02:12.737Z,1030.3
2023-02-04T08:03:12.746Z,1030.4
2023-02-04T08:04:12.735Z,1030.3
2023-02-04T08:05:12.747Z,1030.3
2023-02-04T08:06:12.817Z,1030.4
2023-02-04T08:07:12.761Z,1030.4
2023-02-04T08:08:12.764Z,1030.5
2023-02-04T08:09:12.774Z,1030.4
2023-02-04T08:10:12.798Z,1030.5
2023-02-04T08:11:12.783Z,1030.4
2023-02-04T08:12:12.796Z,1030.5
2023-02-04T08:13:12.802Z,1030.4
2023-02-04T08:14:12.801Z,1030.5
2023-02-04T08:15:12.819Z,1030.6
2023-02-04T08:16:12.933Z,1030.6
2023-02-04T08:17:12.827Z,1030.6
2023-02-04T08:18:12.845Z,1030.5
2023-02-04T08:19:12.836Z,1030.6
2023-02-04T08:20:12.845Z,1030.5
2023-02-04T08:21:12.867Z,1030.5
2023-02-04T08:22:12.863Z,1030.5
2023-02-04T08:23:12.885Z,1030.5
2023-02-04T08:24:12.873Z,1030.5
2023-02-04T08:25:12.903Z,1030.4
2023-02-04T08:26:12.896Z,1030.5
2023-02-04T08:27:12.907Z,1030.5
2023-02-04T08:28:13.055Z,1030.6
2023-02-04T08:29:12.917Z,1030.5
2023-02-04T08:30:12.965Z,1030.5
2023-02-04T08:31:13.227Z,1030.6
2023-02-04T08:32:12.928Z,1030.5
2023-02-04T08:33:12.938Z,1030.6
2023-02-04T08:34:12.950Z,1030.6
2023-02-04T08:35:12.950Z,1030.6
2023-02-04T08:36:12.969Z,1030.7
2023-02-04T08:37:12.963Z,1030.6
2023-02-04T08:38:13.062Z,1030.6
2023-02-04T08:39:13.001Z,1030.6
2023-02-04T08:40:13.001Z,1030.7
2023-02-04T08:41:13.012Z,1030.6
2023-02-04T08:42:13.022Z,1030.6
2023-02-04T08:43:13.027Z,1030.6
2023-02-04T08:44:13.031Z,1030.7
2023-02-04T08:45:13.046Z,1030.7
2023-02-04T08:46:13.115Z,1030.8
2023-02-04T08:47:13.074Z,1030.7
2023-02-04T08:48:13.062Z,1030.7
2023-02-04T08:49:13.097Z,1030.7
2023-02-04T08:50:13.103Z,1030.7
2023-02-04T08:51:13.093Z,1030.7
2023-02-04T08:52:13.082Z,1030.7
2023-02-04T08:53:13.100Z,1030.8
2023-02-04T08:54:13.100Z,1030.8
2023-02-04T08:55:13.116Z,1030.8
2023-02-04T08:56:13.128Z,1030.8
2023-02-04T08:57:13.146Z,1030.8
2023-02-04T08:58:13.136Z,1030.8
2023-02-04T08:59:13.141Z,1030.9
2023-02-04T09:00:13.164Z,1030.9
2023-02-04T09:01:13.257Z,1031.0
2023-02-04T09:02:13.383Z,1030.9
2023-02-04T09:03:13.174Z,1030.9
2023-02-04T09:04:13.199Z,1030.9
2023-02-04T09:05:13.227Z,1030.9
2023-02-04T09:06:13.214Z,1031.0
2023-02-04T09:07:13.225Z,1030.9
2023-02-04T09:08:13.219Z,1031.0
2023-02-04T09:09:13.242Z,1031.0
2023-02-04T09:10:13.238Z,1030.9
2023-02-04T09:11:13.245Z,1031.0
2023-02-04T09:12:13.267Z,1031.0
2023-02-04T09:13:13.255Z,1031.0
2023-02-04T09:14:13.269Z,1031.0
2023-02-04T09:15:13.273Z,1031.0
2023-02-04T09:16:13.343Z,1031.1
2023-02-04T09:17:13.306Z,1031.0
2023-02-04T09:18:13.300Z,1031.1
2023-02-04T09:19:13.300Z,1031.1
2023-02-04T09:20:13.320Z,1031.1
2023-02-04T09:21:13.314Z,1031.1
2023-02-04T09:22:13.358Z,1031.2
2023-02-04T09:23:13.350Z,1031.2
2023-02-04T09:24:13.353Z,1031.2
2023-02-04T09:25:13.349Z,1031.2
2023-02-04T09:26:13.352Z,1031.3
2023-02-04T09:27:13.370Z,1031.2
2023-02-04T09:28:13.485Z,1031.3
2023-02-04T09:29:13.386Z,1031.3
2023-02-04T09:30:13.426Z,1031.3
2023-02-04T09:31:13.685Z,1031.3
2023-02-04T09:32:13.524Z,1031.3
2023-02-04T09:33:13.420Z,1031.3
2023-02-04T09:34:13.423Z,1031.3
2023-02-04T09:35:13.431Z,1031.3
2023-02-04T09:36:13.452Z,1031.3
2023-02-04T09:37:13.444Z,1031.3
2023-02-04T09:38:13.454Z,1031.2
2023-02-04T09:39:13.463Z,1031.3
2023-02-04T09:40:13.462Z,1031.3
2023-02-04T09:41:13.514Z,1031.2
2023-02-04T09:42:13.477Z,1031.3
2023-02-04T09:43:13.487Z,1031.2
2023-02-04T09:44:13.492Z,1031.3
2023-02-04T09:45:13.514Z,1031.3
2023-02-04T09:46:13.560Z,1031.3
2023-02-04T09:47:13.533Z,1031.3
2023-02-04T09:48:13.529Z,1031.3
2023-02-04T09:49:13.568Z,1031.3
2023-02-04T09:50:13.544Z,1031.4
2023-02-04T09:51:13.560Z,1031.4
2023-02-04T09:52:13.554Z,1031.4
2023-02-04T09:53:13.565Z,1031.3
2023-02-04T09:54:13.568Z,1031.4
2023-02-04T09:55:13.583Z,1031.4
2023-02-04T09:56:13.594Z,1031.4
2023-02-04T09:57:13.589Z,1031.4
2023-02-04T09:58:13.611Z,1031.4
2023-02-04T09:59:13.611Z,1031.4
2023-02-04T10:00:13.616Z,1031.4
2023-02-04T10:01:13.690Z,1031.5
2023-02-04T10:02:13.628Z,1031.4
2023-02-04T10:03:13.746Z,1031.4
2023-02-04T10:04:13.649Z,1031.4
2023-02-04T10:05:13.648Z,1031.3
2023-02-04T10:06:13.659Z,1031.4
2023-02-04T10:07:13.691Z,1031.4
2023-02-04T10:08:13.665Z,1031.5
2023-02-04T10:09:13.672Z,1031.5
2023-02-04T10:10:13.689Z,1031.6
2023-02-04T10:11:13.690Z,1031.5
2023-02-04T10:12:13.695Z,1031.6
2023-02-04T10:13:13.713Z,1031.5
2023-02-04T10:14:13.721Z,1031.6
2023-02-04T10:15:13.722Z,1031.6
2023-02-04T10:16:13.783Z,1031.7
2023-02-04T10:17:13.736Z,1031.7
2023-02-04T10:18:13.741Z,1031.6
2023-02-04T10:19:13.742Z,1031.7
2023-02-04T10:20:13.755Z,1031.6
2023-02-04T10:21:13.768Z,1031.6
2023-02-04T10:22:13.773Z,1031.6
2023-02-04T10:23:13.777Z,1031.6
2023-02-04T10:24:13.796Z,1031.6
2023-02-04T10:25:13.798Z,1031.6
2023-02-04T10:26:13.809Z,1031.7
2023-02-04T10:27:13.816Z,1031.7
2023-02-04T10:28:13.982Z,1031.5
2023-02-04T10:29:13.840Z,1031.6
2023-02-04T10:30:13.842Z,1031.6
2023-02-04T10:31:14.064Z,1031.6
2023-02-04T10:32:13.856Z,1031.6
2023-02-04T10:33:13.866Z,1031.6
2023-02-04T10:34:13.879Z,1031.6
2023-02-04T10:35:13.959Z,1031.6
2023-02-04T10:36:13.895Z,1031.6
2023-02-04T10:37:13.903Z,1031.6
2023-02-04T10:38:13.917Z,1031.6
2023-02-04T10:39:14.060Z,1031.7
2023-02-04T10:40:13.929Z,1031.7
2023-02-04T10:41:13.943Z,1031.7
2023-02-04T10:42:13.950Z,1031.8
2023-02-04T10:43:13.958Z,1031.7
2023-02-04T10:44:13.968Z,1031.8
2023-02-04T10:45:13.971Z,1031.7
2023-02-04T10:46:14.101Z,1031.7
2023-02-04T10:47:13.992Z,1031.7
2023-02-04T10:48:13.995Z,1031.8
2023-02-04T10:49:14.012Z,1031.7
2023-02-04T10:50:14.007Z,1031.8
2023-02-04T10:51:14.039Z,1031.8
2023-02-04T10:52:14.020Z,1031.8
2023-02-04T10:53:14.029Z,1031.8
2023-02-04T10:54:14.038Z,1031.7
2023-02-04T10:55:14.060Z,1031.8
2023-02-04T10:56:14.056Z,1031.8
2023-02-04T10:57:14.070Z,1031.8
2023-02-04T10:58:14.072Z,1031.8
2023-02-04T10:59:14.075Z,1031.8
2023-02-04T11:00:14.087Z,1031.8
2023-02-04T11:01:14.227Z,1031.8
2023-02-04T11:02:14.099Z,1031.8
2023-02-04T11:03:14.198Z,1031.9
2023-02-04T11:04:14.127Z,1031.9
2023-02-04T11:05:14.147Z,1031.8
2023-02-04T11:06:14.166Z,1031.9
2023-02-04T11:07:14.166Z,1031.8
2023-02-04T11:08:14.175Z,1031.8
2023-02-04T11:09:14.178Z,1031.9
2023-02-04T11:10:14.184Z,1031.9
2023-02-04T11:11:14.195Z,1031.9
2023-02-04T11:12:14.204Z,1031.9
2023-02-04T11:13:14.217Z,1031.9
2023-02-04T11:14:14.229Z,1031.9
2023-02-04T11:15:14.237Z,1031.8
2023-02-04T11:16:14.442Z,1031.9
2023-02-04T11:17:14.261Z,1031.9
2023-02-04T11:18:14.291Z,1031.9
2023-02-04T11:19:14.275Z,1032.0
2023-02-04T11:20:14.283Z,1032.0
2023-02-04T11:21:14.361Z,1032.0
2023-02-04T11:22:14.304Z,1032.0
2023-02-04T11:23:14.331Z,1032.0
2023-02-04T11:24:14.339Z,1031.9
2023-02-04T11:25:14.337Z,1032.0
2023-02-04T11:26:14.360Z,1032.0
2023-02-04T11:27:14.365Z,1032.0
2023-02-04T11:28:14.478Z,1032.0
2023-02-04T11:29:14.380Z,1031.9
2023-02-04T11:30:14.407Z,1031.9
2023-02-04T11:31:14.757Z,1031.9
2023-02-04T11:32:14.429Z,1031.9
2023-02-04T11:33:14.436Z,1031.9
2023-02-04T11:34:14.439Z,1031.9
2023-02-04T11:35:14.446Z,1031.9
2023-02-04T11:36:14.455Z,1032.0
2023-02-04T11:37:14.470Z,1031.9
2023-02-04T11:38:14.467Z,1031.9
2023-02-04T11:39:14.473Z,1031.9
2023-02-04T11:40:14.481Z,1032.0
2023-02-04T11:41:14.488Z,1031.9
2023-02-04T11:42:14.566Z,1031.9
2023-02-04T11:43:14.511Z,1031.9
2023-02-04T11:44:14.529Z,1031.9
2023-02-04T11:45:14.532Z,1031.9
2023-02-04T11:46:14.612Z,1031.9
2023-02-04T11:47:14.549Z,1031.9
2023-02-04T11:48:14.564Z,1032.0
2023-02-04T11:49:14.619Z,1032.0
2023-02-04T11:50:14.687Z,1031.9
2023-02-04T11:51:14.617Z,1031.9
2023-02-04T11:52:14.601Z,1031.9
2023-02-04T11:53:14.630Z,1031.9
2023-02-04T11:54:14.641Z,1032.0
2023-02-04T11:55:14.624Z,1032.0
2023-02-04T11:56:14.630Z,1031.9
2023-02-04T11:57:14.640Z,1032.0
2023-02-04T11:58:14.653Z,1032.0
2023-02-04T11:59:14.658Z,1032.0
2023-02-04T12:00:14.660Z,1031.9
2023-02-04T12:01:14.674Z,1032.0
2023-02-04T12:02:15.186Z,1032.1
2023-02-04T12:03:14.691Z,1032.0
2023-02-04T12:04:14.697Z,1032.1
2023-02-04T12:05:14.710Z,1032.0
2023-02-04T12:06:14.713Z,1032.1
2023-02-04T12:07:14.723Z,1032.0
2023-02-04T12:08:14.735Z,1032.1
2023-02-04T12:09:14.733Z,1032.1
2023-02-04T12:10:14.807Z,1032.1
2023-02-04T12:11:14.749Z,1032.1
2023-02-04T12:12:14.757Z,1032.1
2023-02-04T12:13:14.773Z,1032.1
2023-02-04T12:14:14.781Z,1032.1
2023-02-04T12:15:14.789Z,1032.2
2023-02-04T12:16:14.940Z,1032.2
2023-02-04T12:17:14.813Z,1032.2
2023-02-04T12:18:14.837Z,1032.1
2023-02-04T12:19:14.835Z,1032.1
2023-02-04T12:20:14.842Z,1032.2
2023-02-04T12:21:14.858Z,1032.0
2023-02-04T12:22:14.862Z,1032.1
2023-02-04T12:23:14.859Z,1032.2
2023-02-04T12:24:14.865Z,1032.2
2023-02-04T12:25:14.869Z,1032.2
2023-02-04T12:26:14.882Z,1032.2
2023-02-04T12:27:14.935Z,1032.2
2023-02-04T12:28:15.036Z,1032.2
2023-02-04T12:29:14.903Z,1032.2
2023-02-04T12:30:14.911Z,1032.2
2023-02-04T12:31:15.167Z,1032.2
2023-02-04T12:32:15.060Z,1032.2
2023-02-04T12:33:15.247Z,1032.2
2023-02-04T12:34:14.950Z,1032.2
2023-02-04T12:35:14.960Z,1032.2
2023-02-04T12:36:14.968Z,1032.2
2023-02-04T12:37:14.977Z,1032.2
2023-02-04T12:38:14.984Z,1032.1
2023-02-04T12:39:14.992Z,1032.2
2023-02-04T12:40:15.004Z,1032.1
2023-02-04T12:41:15.004Z,1032.2
2023-02-04T12:42:15.013Z,1032.1
2023-02-04T12:43:15.017Z,1032.1
2023-02-04T12:44:15.032Z,1032.2
2023-02-04T12:45:15.060Z,1032.1